sensor_id;sensor_type;location;lat;lon;timestamp;pressure;altitude;pressure_sealevel;temperature
28905;BMP280;60848;53.884;11.446;2023-02-01T00:01:30;100587.84;;;6.68
28905;BMP280;60848;53.884;11.446;2023-02-01T00:03:59;100581.88;;;6.67
28905;BMP280;60848;53.884;11.446;2023-02-01T00:06:27;100578.53;;;6.67
28905;BMP280;60848;53.884;11.446;2023-02-01T00:08:56;100568.06;;;6.63
28905;BMP280;60848;53.884;11.446;2023-02-01T00:11:24;100572.41;;;6.59
28905;BMP280;60848;53.884;11.446;2023-02-01T00:13:53;100572.06;;;6.61
28905;BMP280;60848;53.884;11.446;2023-02-01T00:16:26;100559.84;;;6.61
28905;BMP280;60848;53.884;11.446;2023-02-01T00:18:58;100564.19;;;6.57
28905;BMP280;60848;53.884;11.446;2023-02-01T00:21:28;100559.00;;;6.57
28905;BMP280;60848;53.884;11.446;2023-02-01T00:23:57;100558.16;;;6.53
28905;BMP280;60848;53.884;11.446;2023-02-01T00:26:31;100554.91;;;6.56
28905;BMP280;60848;53.884;11.446;2023-02-01T00:29:00;100566.56;;;6.62
28905;BMP280;60848;53.884;11.446;2023-02-01T00:31:30;100562.19;;;6.66
28905;BMP280;60848;53.884;11.446;2023-02-01T00:33:59;100569.75;;;6.71
28905;BMP280;60848;53.884;11.446;2023-02-01T00:36:27;100570.25;;;6.77
28905;BMP280;60848;53.884;11.446;2023-02-01T00:38:57;100567.50;;;6.85
28905;BMP280;60848;53.884;11.446;2023-02-01T00:41:26;100565.06;;;6.93
28905;BMP280;60848;53.884;11.446;2023-02-01T00:43:54;100552.50;;;6.95
28905;BMP280;60848;53.884;11.446;2023-02-01T00:46:23;100547.66;;;7.09
28905;BMP280;60848;53.884;11.446;2023-02-01T00:48:54;100605.69;;;7.13
28905;BMP280;60848;53.884;11.446;2023-02-01T00:51:24;100608.34;;;7.16
28905;BMP280;60848;53.884;11.446;2023-02-01T00:53:53;100574.13;;;7.14
28905;BMP280;60848;53.884;11.446;2023-02-01T00:56:22;100587.47;;;7.13
28905;BMP280;60848;53.884;11.446;2023-02-01T00:58:51;100590.41;;;7.11
28905;BMP280;60848;53.884;11.446;2023-02-01T01:01:21;100585.28;;;6.99
28905;BMP280;60848;53.884;11.446;2023-02-01T01:03:54;100572.44;;;6.91
28905;BMP280;60848;53.884;11.446;2023-02-01T01:06:25;100568.41;;;6.77
28905;BMP280;60848;53.884;11.446;2023-02-01T01:08:55;100570.00;;;6.66
28905;BMP280;60848;53.884;11.446;2023-02-01T01:11:26;100582.56;;;6.64
28905;BMP280;60848;53.884;11.446;2023-02-01T01:13:57;100589.09;;;6.58
28905;BMP280;60848;53.884;11.446;2023-02-01T01:16:28;100595.22;;;6.50
28905;BMP280;60848;53.884;11.446;2023-02-01T01:18:59;100577.03;;;6.50
28905;BMP280;60848;53.884;11.446;2023-02-01T01:23:57;100580.03;;;6.52
28905;BMP280;60848;53.884;11.446;2023-02-01T01:26:28;100584.22;;;6.57
28905;BMP280;60848;53.884;11.446;2023-02-01T01:28:59;100581.63;;;6.57
28905;BMP280;60848;53.884;11.446;2023-02-01T01:31:28;100562.34;;;6.58
28905;BMP280;60848;53.884;11.446;2023-02-01T01:33:59;100569.19;;;6.62
28905;BMP280;60848;53.884;11.446;2023-02-01T01:36:29;100573.66;;;6.65
28905;BMP280;60848;53.884;11.446;2023-02-01T01:38:57;100561.09;;;6.67
28905;BMP280;60848;53.884;11.446;2023-02-01T01:41:31;100562.19;;;6.66
28905;BMP280;60848;53.884;11.446;2023-02-01T01:44:01;100554.84;;;6.68
28905;BMP280;60848;53.884;11.446;2023-02-01T01:46:32;100561.38;;;6.78
28905;BMP280;60848;53.884;11.446;2023-02-01T01:49:07;100551.16;;;6.85
28905;BMP280;60848;53.884;11.446;2023-02-01T01:51:40;100542.75;;;6.92
28905;BMP280;60848;53.884;11.446;2023-02-01T01:54:12;100536.66;;;7.00
28905;BMP280;60848;53.884;11.446;2023-02-01T01:56:44;100534.88;;;7.04
28905;BMP280;60848;53.884;11.446;2023-02-01T01:59:14;100529.19;;;6.98
28905;BMP280;60848;53.884;11.446;2023-02-01T02:01:43;100534.88;;;7.04
28905;BMP280;60848;53.884;11.446;2023-02-01T02:04:14;100529.34;;;7.05
28905;BMP280;60848;53.884;11.446;2023-02-01T02:06:47;100527.50;;;7.06
28905;BMP280;60848;53.884;11.446;2023-02-01T02:09:16;100522.63;;;7.04
28905;BMP280;60848;53.884;11.446;2023-02-01T02:11:45;100514.91;;;7.08
28905;BMP280;60848;53.884;11.446;2023-02-01T02:14:16;100518.94;;;7.05
28905;BMP280;60848;53.884;11.446;2023-02-01T02:17:12;100509.72;;;7.08
28905;BMP280;60848;53.884;11.446;2023-02-01T02:20:30;100509.81;;;7.11
28905;BMP280;60848;53.884;11.446;2023-02-01T02:26:57;100499.13;;;7.16
28905;BMP280;60848;53.884;11.446;2023-02-01T02:30:20;100502.84;;;7.15
28905;BMP280;60848;53.884;11.446;2023-02-01T02:33:37;100499.56;;;7.18
28905;BMP280;60848;53.884;11.446;2023-02-01T02:36:17;100495.78;;;7.16
28905;BMP280;60848;53.884;11.446;2023-02-01T02:38:55;100490.91;;;7.14
28905;BMP280;60848;53.884;11.446;2023-02-01T02:41:32;100495.78;;;7.16
28905;BMP280;60848;53.884;11.446;2023-02-01T02:44:31;100488.41;;;7.18
28905;BMP280;60848;53.884;11.446;2023-02-01T02:47:25;100495.47;;;7.17
28905;BMP280;60848;53.884;11.446;2023-02-01T02:50:12;100503.34;;;7.21
28905;BMP280;60848;53.884;11.446;2023-02-01T02:53:15;100505.34;;;7.27
28905;BMP280;60848;53.884;11.446;2023-02-01T02:56:04;100501.63;;;7.28
28905;BMP280;60848;53.884;11.446;2023-02-01T02:58:52;100499.78;;;7.29
28905;BMP280;60848;53.884;11.446;2023-02-01T03:01:39;100500.97;;;7.31
28905;BMP280;60848;53.884;11.446;2023-02-01T03:04:25;100489.47;;;7.32
28905;BMP280;60848;53.884;11.446;2023-02-01T03:06:55;100477.56;;;7.31
28905;BMP280;60848;53.884;11.446;2023-02-01T03:09:31;100483.25;;;7.37
28905;BMP280;60848;53.884;11.446;2023-02-01T03:12:05;100481.41;;;7.37
28905;BMP280;60848;53.884;11.446;2023-02-01T03:14:57;100481.06;;;7.39
28905;BMP280;60848;53.884;11.446;2023-02-01T03:17:34;100479.91;;;7.36
28905;BMP280;60848;53.884;11.446;2023-02-01T03:20:05;100471.69;;;7.34
28905;BMP280;60848;53.884;11.446;2023-02-01T03:22:37;100475.84;;;7.39
28905;BMP280;60848;53.884;11.446;2023-02-01T03:25:11;100460.66;;;7.41
28905;BMP280;60848;53.884;11.446;2023-02-01T03:27:44;100469.53;;;7.40
28905;BMP280;60848;53.884;11.446;2023-02-01T03:30:20;100470.31;;;7.40
28905;BMP280;60848;53.884;11.446;2023-02-01T03:32:53;100466.28;;;7.43
28905;BMP280;60848;53.884;11.446;2023-02-01T03:35:32;100461.50;;;7.45
28905;BMP280;60848;53.884;11.446;2023-02-01T03:38:08;100460.81;;;7.48
28905;BMP280;60848;53.884;11.446;2023-02-01T03:40:42;100463.78;;;7.50
28905;BMP280;60848;53.884;11.446;2023-02-01T03:43:15;100455.69;;;7.51
28905;BMP280;60848;53.884;11.446;2023-02-01T03:45:50;100464.63;;;7.54
28905;BMP280;60848;53.884;11.446;2023-02-01T03:48:21;100448.00;;;7.58
28905;BMP280;60848;53.884;11.446;2023-02-01T03:50:53;100450.53;;;7.55
28905;BMP280;60848;53.884;11.446;2023-02-01T03:53:25;100449.91;;;7.61
28905;BMP280;60848;53.884;11.446;2023-02-01T03:55:54;100440.75;;;7.67
28905;BMP280;60848;53.884;11.446;2023-02-01T03:58:24;100439.72;;;7.72
28905;BMP280;60848;53.884;11.446;2023-02-01T04:00:54;100434.16;;;7.73
28905;BMP280;60848;53.884;11.446;2023-02-01T04:03:24;100435.75;;;7.78
28905;BMP280;60848;53.884;11.446;2023-02-01T04:05:53;100427.59;;;7.79
28905;BMP280;60848;53.884;11.446;2023-02-01T04:08:24;100424.66;;;7.81
28905;BMP280;60848;53.884;11.446;2023-02-01T04:10:53;100423.53;;;7.82
28905;BMP280;60848;53.884;11.446;2023-02-01T04:13:21;100420.88;;;7.78
28905;BMP280;60848;53.884;11.446;2023-02-01T04:15:50;100417.53;;;7.78
28905;BMP280;60848;53.884;11.446;2023-02-01T04:18:18;100417.03;;;7.72
28905;BMP280;60848;53.884;11.446;2023-02-01T04:20:46;100414.94;;;7.78
28905;BMP280;60848;53.884;11.446;2023-02-01T04:23:15;100423.16;;;7.80
28905;BMP280;60848;53.884;11.446;2023-02-01T04:25:45;100421.34;;;7.84
28905;BMP280;60848;53.884;11.446;2023-02-01T04:28:13;100417.28;;;7.86
28905;BMP280;60848;53.884;11.446;2023-02-01T04:30:42;100412.44;;;7.85
28905;BMP280;60848;53.884;11.446;2023-02-01T04:33:10;100405.03;;;7.87
28905;BMP280;60848;53.884;11.446;2023-02-01T04:35:41;100411.34;;;7.86
28905;BMP280;60848;53.884;11.446;2023-02-01T04:38:09;100409.56;;;7.90
28905;BMP280;60848;53.884;11.446;2023-02-01T04:40:37;100410.31;;;7.90
28905;BMP280;60848;53.884;11.446;2023-02-01T04:43:07;100399.16;;;7.90
28905;BMP280;60848;53.884;11.446;2023-02-01T04:45:36;100405.03;;;7.87
28905;BMP280;60848;53.884;11.446;2023-02-01T04:48:05;100400.59;;;7.87
28905;BMP280;60848;53.884;11.446;2023-02-01T04:50:33;100406.44;;;7.81
28905;BMP280;60848;53.884;11.446;2023-02-01T04:53:02;100393.69;;;7.76
28905;BMP280;60848;53.884;11.446;2023-02-01T04:55:30;100392.25;;;7.78
28905;BMP280;60848;53.884;11.446;2023-02-01T04:57:59;100391.50;;;7.78
28905;BMP280;60848;53.884;11.446;2023-02-01T05:00:29;100386.63;;;7.76
28905;BMP280;60848;53.884;11.446;2023-02-01T05:02:57;100372.00;;;7.68
28905;BMP280;60848;53.884;11.446;2023-02-01T05:05:27;100361.47;;;7.61
28905;BMP280;60848;53.884;11.446;2023-02-01T05:07:55;100369.91;;;7.55
28905;BMP280;60848;53.884;11.446;2023-02-01T05:10:24;100374.75;;;7.56
28905;BMP280;60848;53.884;11.446;2023-02-01T05:12:52;100381.47;;;7.57
28905;BMP280;60848;53.884;11.446;2023-02-01T05:15:39;100365.88;;;7.57
28905;BMP280;60848;53.884;11.446;2023-02-01T05:18:08;100377.28;;;7.53
28905;BMP280;60848;53.884;11.446;2023-02-01T05:20:36;100379.06;;;7.49
28905;BMP280;60848;53.884;11.446;2023-02-01T05:23:05;100371.22;;;7.45
28905;BMP280;60848;53.884;11.446;2023-02-01T05:25:33;100382.97;;;7.39
28905;BMP280;60848;53.884;11.446;2023-02-01T05:28:02;100374.63;;;7.30
28905;BMP280;60848;53.884;11.446;2023-02-01T05:30:31;100381.91;;;7.21
28905;BMP280;60848;53.884;11.446;2023-02-01T05:33:04;100390.84;;;7.24
28905;BMP280;60848;53.884;11.446;2023-02-01T05:35:32;100396.66;;;7.17
28905;BMP280;60848;53.884;11.446;2023-02-01T05:38:00;100399.56;;;7.16
28905;BMP280;60848;53.884;11.446;2023-02-01T05:40:29;100387.22;;;7.09
28905;BMP280;60848;53.884;11.446;2023-02-01T05:42:57;100397.44;;;7.02
28905;BMP280;60848;53.884;11.446;2023-02-01T05:45:26;100391.78;;;6.97
28905;BMP280;60848;53.884;11.446;2023-02-01T05:47:54;100387.84;;;6.87
28905;BMP280;60848;53.884;11.446;2023-02-01T05:50:24;100380.47;;;6.89
28905;BMP280;60848;53.884;11.446;2023-02-01T05:52:53;100385.41;;;6.94
28905;BMP280;60848;53.884;11.446;2023-02-01T05:55:21;100385.13;;;6.99
28905;BMP280;60848;53.884;11.446;2023-02-01T05:57:50;100386.31;;;7.02
28905;BMP280;60848;53.884;11.446;2023-02-01T06:00:19;100379.31;;;7.06
28905;BMP280;60848;53.884;11.446;2023-02-01T06:02:48;100375.16;;;7.01
28905;BMP280;60848;53.884;11.446;2023-02-01T06:05:17;100360.59;;;6.97
28905;BMP280;60848;53.884;11.446;2023-02-01T06:07:47;100366.53;;;6.97
28905;BMP280;60848;53.884;11.446;2023-02-01T06:10:17;100362.84;;;6.98
28905;BMP280;60848;53.884;11.446;2023-02-01T06:12:46;100361.75;;;6.99
28905;BMP280;60848;53.884;11.446;2023-02-01T06:15:15;100350.94;;;6.97
28905;BMP280;60848;53.884;11.446;2023-02-01T06:17:45;100349.44;;;6.96
28905;BMP280;60848;53.884;11.446;2023-02-01T06:20:16;100363.84;;;6.94
28905;BMP280;60848;53.884;11.446;2023-02-01T06:22:46;100357.16;;;6.93
28905;BMP280;60848;53.884;11.446;2023-02-01T06:25:15;100355.22;;;6.89
28905;BMP280;60848;53.884;11.446;2023-02-01T06:27:44;100359.94;;;6.84
28905;BMP280;60848;53.884;11.446;2023-02-01T06:30:13;100366.22;;;6.83
28905;BMP280;60848;53.884;11.446;2023-02-01T06:32:42;100355.41;;;6.81
28905;BMP280;60848;53.884;11.446;2023-02-01T06:35:11;100374.34;;;6.81
28905;BMP280;60848;53.884;11.446;2023-02-01T06:37:43;100370.28;;;6.80
28905;BMP280;60848;53.884;11.446;2023-02-01T06:40:13;100369.78;;;6.75
28905;BMP280;60848;53.884;11.446;2023-02-01T06:42:42;100361.13;;;6.71
28905;BMP280;60848;53.884;11.446;2023-02-01T06:45:11;100379.75;;;6.73
28905;BMP280;60848;53.884;11.446;2023-02-01T06:47:39;100376.22;;;6.65
28905;BMP280;60848;53.884;11.446;2023-02-01T06:50:10;100373.59;;;6.62
28905;BMP280;60848;53.884;11.446;2023-02-01T06:52:38;100375.41;;;6.61
28905;BMP280;60848;53.884;11.446;2023-02-01T06:55:08;100372.97;;;6.68
28905;BMP280;60848;53.884;11.446;2023-02-01T06:57:38;100372.97;;;6.68
28905;BMP280;60848;53.884;11.446;2023-02-01T07:00:08;100364.84;;;6.70
28905;BMP280;60848;53.884;11.446;2023-02-01T07:02:37;100368.94;;;6.71
28905;BMP280;60848;53.884;11.446;2023-02-01T07:05:07;100366.03;;;6.72
28905;BMP280;60848;53.884;11.446;2023-02-01T07:07:35;100367.84;;;6.72
28905;BMP280;60848;53.884;11.446;2023-02-01T07:10:05;100380.16;;;6.75
28905;BMP280;60848;53.884;11.446;2023-02-01T07:12:33;100375.72;;;6.75
28905;BMP280;60848;53.884;11.446;2023-02-01T07:15:06;100382.75;;;6.75
28905;BMP280;60848;53.884;11.446;2023-02-01T07:17:34;100383.53;;;6.75
28905;BMP280;60848;53.884;11.446;2023-02-01T07:20:04;100375.72;;;6.75
28905;BMP280;60848;53.884;11.446;2023-02-01T07:22:33;100372.09;;;6.80
28905;BMP280;60848;53.884;11.446;2023-02-01T07:25:02;100372.09;;;6.80
28905;BMP280;60848;53.884;11.446;2023-02-01T07:27:34;100376.97;;;6.81
28905;BMP280;60848;53.884;11.446;2023-02-01T07:30:05;100372.53;;;6.82
28905;BMP280;60848;53.884;11.446;2023-02-01T07:32:34;100368.41;;;6.81
28905;BMP280;60848;53.884;11.446;2023-02-01T07:35:03;100368.41;;;6.81
28905;BMP280;60848;53.884;11.446;2023-02-01T07:37:32;100373.34;;;6.86
28905;BMP280;60848;53.884;11.446;2023-02-01T07:40:00;100367.47;;;6.89
28905;BMP280;60848;53.884;11.446;2023-02-01T07:42:29;100373.06;;;6.91
28905;BMP280;60848;53.884;11.446;2023-02-01T07:44:57;100364.97;;;6.93
28905;BMP280;60848;53.884;11.446;2023-02-01T07:48:13;100381.03;;;6.98
28905;BMP280;60848;53.884;11.446;2023-02-01T07:50:41;100374.06;;;7.02
28905;BMP280;60848;53.884;11.446;2023-02-01T07:53:10;100387.47;;;7.04
28905;BMP280;60848;53.884;11.446;2023-02-01T07:55:39;100368.56;;;7.07
28905;BMP280;60848;53.884;11.446;2023-02-01T07:58:07;100382.44;;;7.11
28905;BMP280;60848;53.884;11.446;2023-02-01T08:00:36;100379.88;;;7.15
28905;BMP280;60848;53.884;11.446;2023-02-01T08:03:23;100388.44;;;7.15
28905;BMP280;60848;53.884;11.446;2023-02-01T08:05:54;100381.38;;;7.16
28905;BMP280;60848;53.884;11.446;2023-02-01T08:08:23;100387.00;;;7.18
28905;BMP280;60848;53.884;11.446;2023-02-01T08:10:57;100383.72;;;7.21
28905;BMP280;60848;53.884;11.446;2023-02-01T08:13:25;100380.38;;;7.20
28905;BMP280;60848;53.884;11.446;2023-02-01T08:15:58;100373.75;;;7.23
28905;BMP280;60848;53.884;11.446;2023-02-01T08:18:28;100391.59;;;7.24
28905;BMP280;60848;53.884;11.446;2023-02-01T08:20:57;100382.34;;;7.27
28905;BMP280;60848;53.884;11.446;2023-02-01T08:23:25;100377.97;;;7.31
28905;BMP280;60848;53.884;11.446;2023-02-01T08:25:54;100378.81;;;7.35
28905;BMP280;60848;53.884;11.446;2023-02-01T08:28:22;100383.28;;;7.38
28905;BMP280;60848;53.884;11.446;2023-02-01T08:30:51;100385.31;;;7.44
28905;BMP280;60848;53.884;11.446;2023-02-01T08:33:19;100387.00;;;7.56
28905;BMP280;60848;53.884;11.446;2023-02-01T08:35:50;100389.31;;;7.61
28905;BMP280;60848;53.884;11.446;2023-02-01T08:38:19;100388.72;;;7.67
28905;BMP280;60848;53.884;11.446;2023-02-01T08:40:47;100392.06;;;7.68
28905;BMP280;60848;53.884;11.446;2023-02-01T08:43:15;100395.13;;;7.73
28905;BMP280;60848;53.884;11.446;2023-02-01T08:45:44;100398.22;;;7.79
28905;BMP280;60848;53.884;11.446;2023-02-01T08:48:13;100398.34;;;7.86
28905;BMP280;60848;53.884;11.446;2023-02-01T08:50:41;100399.38;;;8.04
28905;BMP280;60848;53.884;11.446;2023-02-01T08:53:12;100394.22;;;8.30
28905;BMP280;60848;53.884;11.446;2023-02-01T08:55:41;100403.06;;;8.48
28905;BMP280;60848;53.884;11.446;2023-02-01T08:58:09;100395.47;;;8.66
28905;BMP280;60848;53.884;11.446;2023-02-01T09:00:38;100398.22;;;8.73
28905;BMP280;60848;53.884;11.446;2023-02-01T09:03:09;100390.88;;;8.85
28905;BMP280;60848;53.884;11.446;2023-02-01T09:05:37;100389.69;;;9.05
28905;BMP280;60848;53.884;11.446;2023-02-01T09:08:16;100396.28;;;9.29
28905;BMP280;60848;53.884;11.446;2023-02-01T09:10:47;100401.28;;;9.48
28905;BMP280;60848;53.884;11.446;2023-02-01T09:13:15;100398.50;;;9.64
28905;BMP280;60848;53.884;11.446;2023-02-01T09:15:44;100402.31;;;9.73
28905;BMP280;60848;53.884;11.446;2023-02-01T09:18:13;100397.75;;;9.63
28905;BMP280;60848;53.884;11.446;2023-02-01T09:20:41;100413.94;;;9.43
28905;BMP280;60848;53.884;11.446;2023-02-01T09:23:10;100402.41;;;9.14
28905;BMP280;60848;53.884;11.446;2023-02-01T09:25:40;100397.94;;;8.81
28905;BMP280;60848;53.884;11.446;2023-02-01T09:28:08;100393.59;;;8.63
28905;BMP280;60848;53.884;11.446;2023-02-01T09:30:37;100394.06;;;8.46
28905;BMP280;60848;53.884;11.446;2023-02-01T09:33:06;100389.75;;;8.31
28905;BMP280;60848;53.884;11.446;2023-02-01T09:35:34;100387.78;;;8.24
28905;BMP280;60848;53.884;11.446;2023-02-01T09:38:03;100392.72;;;8.29
28905;BMP280;60848;53.884;11.446;2023-02-01T09:40:33;100376.88;;;8.41
28905;BMP280;60848;53.884;11.446;2023-02-01T09:43:20;100378.28;;;8.61
28905;BMP280;60848;53.884;11.446;2023-02-01T09:46:02;100386.28;;;8.75
28905;BMP280;60848;53.884;11.446;2023-02-01T09:48:38;100390.00;;;9.04
28905;BMP280;60848;53.884;11.446;2023-02-01T09:51:15;100392.66;;;9.41
28905;BMP280;60848;53.884;11.446;2023-02-01T09:53:48;100392.94;;;9.65
28905;BMP280;60848;53.884;11.446;2023-02-01T09:56:23;100395.41;;;9.91
28905;BMP280;60848;53.884;11.446;2023-02-01T09:59:02;100389.47;;;9.98
28905;BMP280;60848;53.884;11.446;2023-02-01T10:01:32;100380.78;;;9.87
28905;BMP280;60848;53.884;11.446;2023-02-01T10:04:05;100391.91;;;9.77
28905;BMP280;60848;53.884;11.446;2023-02-01T10:09:47;100382.34;;;9.48
28905;BMP280;60848;53.884;11.446;2023-02-01T10:12:57;100385.06;;;9.25
28905;BMP280;60848;53.884;11.446;2023-02-01T10:15:49;100381.91;;;9.12
28905;BMP280;60848;53.884;11.446;2023-02-01T10:18:45;100376.22;;;9.03
28905;BMP280;60848;53.884;11.446;2023-02-01T10:21:37;100376.13;;;8.93
28905;BMP280;60848;53.884;11.446;2023-02-01T10:24:40;100377.78;;;8.78
28905;BMP280;60848;53.884;11.446;2023-02-01T10:27:17;100383.81;;;8.82
28905;BMP280;60848;53.884;11.446;2023-02-01T10:29:53;100376.69;;;9.09
28905;BMP280;60848;53.884;11.446;2023-02-01T10:32:29;100373.69;;;9.44
28905;BMP280;60848;53.884;11.446;2023-02-01T10:35:00;100375.16;;;9.81
28905;BMP280;60848;53.884;11.446;2023-02-01T10:37:31;100371.31;;;10.15
28905;BMP280;60848;53.884;11.446;2023-02-01T10:40:05;100362.16;;;10.42
28905;BMP280;60848;53.884;11.446;2023-02-01T10:42:37;100368.25;;;10.64
28905;BMP280;60848;53.884;11.446;2023-02-01T10:45:12;100378.00;;;10.70
28905;BMP280;60848;53.884;11.446;2023-02-01T10:47:43;100370.59;;;10.87
28905;BMP280;60848;53.884;11.446;2023-02-01T10:50:21;100369.06;;;10.79
28905;BMP280;60848;53.884;11.446;2023-02-01T10:52:58;100367.94;;;10.80
28905;BMP280;60848;53.884;11.446;2023-02-01T10:55:40;100353.34;;;10.75
28905;BMP280;60848;53.884;11.446;2023-02-01T10:58:17;100347.00;;;10.73
28905;BMP280;60848;53.884;11.446;2023-02-01T11:00:49;100351.50;;;10.83
28905;BMP280;60848;53.884;11.446;2023-02-01T11:03:39;100348.94;;;11.00
28905;BMP280;60848;53.884;11.446;2023-02-01T11:06:27;100340.78;;;11.19
28905;BMP280;60848;53.884;11.446;2023-02-01T11:08:58;100335.19;;;11.35
28905;BMP280;60848;53.884;11.446;2023-02-01T11:11:28;100328.47;;;11.34
28905;BMP280;60848;53.884;11.446;2023-02-01T11:13:59;100335.56;;;11.37
28905;BMP280;60848;53.884;11.446;2023-02-01T11:16:35;100342.28;;;11.59
28905;BMP280;60848;53.884;11.446;2023-02-01T11:19:06;100337.81;;;11.77
28905;BMP280;60848;53.884;11.446;2023-02-01T11:21:36;100337.06;;;11.90
28905;BMP280;60848;53.884;11.446;2023-02-01T11:24:15;100334.44;;;11.90
28905;BMP280;60848;53.884;11.446;2023-02-01T11:26:46;100331.41;;;12.02
28905;BMP280;60848;53.884;11.446;2023-02-01T11:29:18;100326.53;;;12.08
28905;BMP280;60848;53.884;11.446;2023-02-01T11:31:50;100314.16;;;12.15
28905;BMP280;60848;53.884;11.446;2023-02-01T11:34:25;100311.88;;;12.21
28905;BMP280;60848;53.884;11.446;2023-02-01T11:36:59;100308.94;;;12.12
28905;BMP280;60848;53.884;11.446;2023-02-01T11:39:32;100304.47;;;12.05
28905;BMP280;60848;53.884;11.446;2023-02-01T11:42:05;100292.50;;;11.94
28905;BMP280;60848;53.884;11.446;2023-02-01T11:44:41;100310.47;;;11.85
28905;BMP280;60848;53.884;11.446;2023-02-01T11:47:20;100289.56;;;11.78
28905;BMP280;60848;53.884;11.446;2023-02-01T11:49:52;100296.69;;;11.70
28905;BMP280;60848;53.884;11.446;2023-02-01T11:52:45;100292.94;;;11.71
28905;BMP280;60848;53.884;11.446;2023-02-01T11:55:43;100286.19;;;11.63
28905;BMP280;60848;53.884;11.446;2023-02-01T11:58:33;100286.19;;;11.53
28905;BMP280;60848;53.884;11.446;2023-02-01T12:01:42;100297.06;;;11.48
28905;BMP280;60848;53.884;11.446;2023-02-01T12:10:49;100304.41;;;10.65
28905;BMP280;60848;53.884;11.446;2023-02-01T12:13:37;100303.53;;;10.40
28905;BMP280;60848;53.884;11.446;2023-02-01T12:16:19;100291.09;;;10.19
28905;BMP280;60848;53.884;11.446;2023-02-01T12:19:16;100276.78;;;9.96
28905;BMP280;60848;53.884;11.446;2023-02-01T12:21:59;100277.06;;;9.84
28905;BMP280;60848;53.884;11.446;2023-02-01T12:24:57;100277.78;;;9.77
28905;BMP280;60848;53.884;11.446;2023-02-01T12:28:00;100284.56;;;9.89
28905;BMP280;60848;53.884;11.446;2023-02-01T12:30:47;100264.13;;;9.98
28905;BMP280;60848;53.884;11.446;2023-02-01T12:33:25;100256.31;;;10.05
28905;BMP280;60848;53.884;11.446;2023-02-01T12:36:14;100251.13;;;10.12
28905;BMP280;60848;53.884;11.446;2023-02-01T12:38:53;100241.03;;;10.10
28905;BMP280;60848;53.884;11.446;2023-02-01T12:41:57;100255.97;;;10.10
28905;BMP280;60848;53.884;11.446;2023-02-01T12:44:40;100258.19;;;10.11
28905;BMP280;60848;53.884;11.446;2023-02-01T12:47:19;100265.28;;;10.11
28905;BMP280;60848;53.884;11.446;2023-02-01T12:49:56;100251.13;;;10.12
28905;BMP280;60848;53.884;11.446;2023-02-01T12:52:35;100235.47;;;10.15
28905;BMP280;60848;53.884;11.446;2023-02-01T12:55:15;100223.94;;;10.23
28905;BMP280;60848;53.884;11.446;2023-02-01T12:57:51;100221.72;;;10.29
28905;BMP280;60848;53.884;11.446;2023-02-01T13:00:34;100216.44;;;10.25
28905;BMP280;60848;53.884;11.446;2023-02-01T13:03:16;100214.22;;;10.27
28905;BMP280;60848;53.884;11.446;2023-02-01T13:05:52;100222.78;;;10.21
28905;BMP280;60848;53.884;11.446;2023-02-01T13:08:26;100226.84;;;10.11
28905;BMP280;60848;53.884;11.446;2023-02-01T13:11:04;100221.56;;;9.94
28905;BMP280;60848;53.884;11.446;2023-02-01T13:13:46;100237.53;;;9.85
28905;BMP280;60848;53.884;11.446;2023-02-01T13:16:23;100240.78;;;9.68
28905;BMP280;60848;53.884;11.446;2023-02-01T13:18:59;100229.91;;;9.56
28905;BMP280;60848;53.884;11.446;2023-02-01T13:21:34;100235.06;;;9.52
28905;BMP280;60848;53.884;11.446;2023-02-01T13:24:04;100222.00;;;9.45
28905;BMP280;60848;53.884;11.446;2023-02-01T13:26:33;100227.75;;;9.21
28905;BMP280;60848;53.884;11.446;2023-02-01T13:29:06;100222.94;;;8.86
28905;BMP280;60848;53.884;11.446;2023-02-01T13:31:56;100205.97;;;8.66
28905;BMP280;60848;53.884;11.446;2023-02-01T13:35:01;100210.56;;;8.43
28905;BMP280;60848;53.884;11.446;2023-02-01T13:38:00;100233.06;;;8.29
28905;BMP280;60848;53.884;11.446;2023-02-01T13:40:38;100224.38;;;8.18
28905;BMP280;60848;53.884;11.446;2023-02-01T13:43:15;100234.84;;;8.21
28905;BMP280;60848;53.884;11.446;2023-02-01T13:45:51;100227.38;;;8.20
28905;BMP280;60848;53.884;11.446;2023-02-01T13:48:28;100231.06;;;8.19
28905;BMP280;60848;53.884;11.446;2023-02-01T13:50:58;100238.88;;;8.19
28905;BMP280;60848;53.884;11.446;2023-02-01T13:53:31;100235.19;;;8.20
28905;BMP280;60848;53.884;11.446;2023-02-01T13:56:02;100228.91;;;8.24
28905;BMP280;60848;53.884;11.446;2023-02-01T13:58:36;100227.44;;;8.27
28905;BMP280;60848;53.884;11.446;2023-02-01T14:01:35;100220.53;;;8.38
28905;BMP280;60848;53.884;11.446;2023-02-01T14:04:06;100229.47;;;8.37
28905;BMP280;60848;53.884;11.446;2023-02-01T14:06:54;100217.31;;;8.48
28905;BMP280;60848;53.884;11.446;2023-02-01T14:09:33;100209.19;;;8.53
28905;BMP280;60848;53.884;11.446;2023-02-01T14:12:42;100231.50;;;8.50
28905;BMP280;60848;53.884;11.446;2023-02-01T14:15:23;100220.31;;;8.50
28905;BMP280;60848;53.884;11.446;2023-02-01T14:17:54;100216.22;;;8.49
28905;BMP280;60848;53.884;11.446;2023-02-01T14:20:45;100220.34;;;8.53
28905;BMP280;60848;53.884;11.446;2023-02-01T14:23:25;100221.94;;;8.61
28905;BMP280;60848;53.884;11.446;2023-02-01T14:26:14;100214.16;;;8.65
28905;BMP280;60848;53.884;11.446;2023-02-01T14:29:02;100210.06;;;8.67
28905;BMP280;60848;53.884;11.446;2023-02-01T14:31:52;100216.38;;;8.63
28905;BMP280;60848;53.884;11.446;2023-02-01T14:34:38;100216.63;;;8.54
28905;BMP280;60848;53.884;11.446;2023-02-01T14:37:22;100222.47;;;8.44
28905;BMP280;60848;53.884;11.446;2023-02-01T14:39:58;100250.34;;;8.40
28905;BMP280;60848;53.884;11.446;2023-02-01T14:42:38;100268.66;;;8.47
28905;BMP280;60848;53.884;11.446;2023-02-01T14:45:48;100277.38;;;8.58
28905;BMP280;60848;53.884;11.446;2023-02-01T14:48:45;100268.75;;;8.54
28905;BMP280;60848;53.884;11.446;2023-02-01T14:51:18;100285.03;;;8.48
28905;BMP280;60848;53.884;11.446;2023-02-01T14:53:47;100268.09;;;8.35